sensor_id;sensor_type;location;lat;lon;timestamp;P1;durP1;ratioP1;P2;durP2;ratioP2
19329;SDS011;9799;48.214;16.388;2023-02-12T00:01:47;20.33;;;14.03;;
19329;SDS011;9799;48.214;16.388;2023-02-12T00:05:09;25.40;;;15.93;;
19329;SDS011;9799;48.214;16.388;2023-02-12T00:08:30;22.97;;;15.37;;
19329;SDS011;9799;48.214;16.388;2023-02-12T00:11:52;22.27;;;15.17;;
19329;SDS011;9799;48.214;16.388;2023-02-12T00:15:14;23.53;;;16.77;;
19329;SDS011;9799;48.214;16.388;2023-02-12T00:18:35;23.53;;;16.37;;
19329;SDS011;9799;48.214;16.388;2023-02-12T00:21:56;22.17;;;15.47;;
19329;SDS011;9799;48.214;16.388;2023-02-12T00:25:17;21.30;;;15.23;;
19329;SDS011;9799;48.214;16.388;2023-02-12T00:28:40;21.90;;;14.93;;
19329;SDS011;9799;48.214;16.388;2023-02-12T00:32:01;18.93;;;14.27;;
19329;SDS011;9799;48.214;16.388;2023-02-12T00:35:23;22.60;;;15.53;;
19329;SDS011;9799;48.214;16.388;2023-02-12T00:38:44;23.47;;;14.73;;
19329;SDS011;9799;48.214;16.388;2023-02-12T00:42:06;18.13;;;12.50;;
19329;SDS011;9799;48.214;16.388;2023-02-12T00:45:29;19.27;;;13.87;;
19329;SDS011;9799;48.214;16.388;2023-02-12T00:48:50;21.93;;;15.07;;
19329;SDS011;9799;48.214;16.388;2023-02-12T00:52:11;20.20;;;14.37;;
19329;SDS011;9799;48.214;16.388;2023-02-12T00:55:33;22.50;;;14.60;;
19329;SDS011;9799;48.214;16.388;2023-02-12T00:58:54;26.37;;;13.73;;
19329;SDS011;9799;48.214;16.388;2023-02-12T01:02:17;19.50;;;12.77;;
19329;SDS011;9799;48.214;16.388;2023-02-12T01:05:38;19.87;;;13.13;;
19329;SDS011;9799;48.214;16.388;2023-02-12T01:08:59;21.23;;;14.20;;
19329;SDS011;9799;48.214;16.388;2023-02-12T01:12:21;20.37;;;13.33;;
19329;SDS011;9799;48.214;16.388;2023-02-12T01:15:42;16.40;;;12.53;;
19329;SDS011;9799;48.214;16.388;2023-02-12T01:19:05;17.43;;;12.67;;
19329;SDS011;9799;48.214;16.388;2023-02-12T01:22:26;17.10;;;11.87;;
19329;SDS011;9799;48.214;16.388;2023-02-12T01:25:47;19.47;;;12.10;;
19329;SDS011;9799;48.214;16.388;2023-02-12T01:29:09;19.87;;;13.33;;
19329;SDS011;9799;48.214;16.388;2023-02-12T01:32:30;15.20;;;11.50;;
19329;SDS011;9799;48.214;16.388;2023-02-12T01:35:53;17.83;;;11.17;;
19329;SDS011;9799;48.214;16.388;2023-02-12T01:39:14;16.83;;;12.60;;
19329;SDS011;9799;48.214;16.388;2023-02-12T01:42:35;17.57;;;11.60;;
19329;SDS011;9799;48.214;16.388;2023-02-12T01:45:58;19.07;;;12.37;;
19329;SDS011;9799;48.214;16.388;2023-02-12T01:49:21;17.30;;;12.50;;
19329;SDS011;9799;48.214;16.388;2023-02-12T01:52:50;19.07;;;13.63;;
19329;SDS011;9799;48.214;16.388;2023-02-12T01:56:14;18.60;;;12.93;;
19329;SDS011;9799;48.214;16.388;2023-02-12T01:59:36;18.73;;;14.57;;
19329;SDS011;9799;48.214;16.388;2023-02-12T02:02:59;17.87;;;13.93;;
19329;SDS011;9799;48.214;16.388;2023-02-12T02:06:21;19.53;;;14.33;;
19329;SDS011;9799;48.214;16.388;2023-02-12T02:09:47;21.20;;;14.27;;
19329;SDS011;9799;48.214;16.388;2023-02-12T02:13:09;17.23;;;13.90;;
19329;SDS011;9799;48.214;16.388;2023-02-12T02:16:49;19.00;;;13.83;;
19329;SDS011;9799;48.214;16.388;2023-02-12T02:24:25;17.33;;;13.23;;
19329;SDS011;9799;48.214;16.388;2023-02-12T02:28:12;20.60;;;12.87;;
19329;SDS011;9799;48.214;16.388;2023-02-12T02:31:48;17.57;;;13.07;;
19329;SDS011;9799;48.214;16.388;2023-02-12T02:35:18;19.70;;;13.37;;
19329;SDS011;9799;48.214;16.388;2023-02-12T02:38:47;22.20;;;14.50;;
19329;SDS011;9799;48.214;16.388;2023-02-12T02:42:14;19.27;;;12.93;;
19329;SDS011;9799;48.214;16.388;2023-02-12T02:45:39;21.80;;;15.13;;
19329;SDS011;9799;48.214;16.388;2023-02-12T02:49:04;20.23;;;13.97;;
19329;SDS011;9799;48.214;16.388;2023-02-12T02:52:30;20.57;;;14.50;;
19329;SDS011;9799;48.214;16.388;2023-02-12T02:55:57;21.67;;;14.80;;
19329;SDS011;9799;48.214;16.388;2023-02-12T02:59:25;17.30;;;14.03;;
19329;SDS011;9799;48.214;16.388;2023-02-12T03:02:51;19.37;;;13.80;;
19329;SDS011;9799;48.214;16.388;2023-02-12T03:06:19;21.70;;;14.63;;
19329;SDS011;9799;48.214;16.388;2023-02-12T03:09:46;20.60;;;14.00;;
19329;SDS011;9799;48.214;16.388;2023-02-12T03:13:10;21.20;;;14.37;;
19329;SDS011;9799;48.214;16.388;2023-02-12T03:16:37;19.13;;;13.80;;
19329;SDS011;9799;48.214;16.388;2023-02-12T03:20:02;24.57;;;14.30;;
19329;SDS011;9799;48.214;16.388;2023-02-12T03:23:28;18.93;;;13.87;;
19329;SDS011;9799;48.214;16.388;2023-02-12T03:26:54;19.40;;;14.37;;
19329;SDS011;9799;48.214;16.388;2023-02-12T03:30:22;21.37;;;14.00;;
19329;SDS011;9799;48.214;16.388;2023-02-12T03:33:52;24.13;;;15.37;;
19329;SDS011;9799;48.214;16.388;2023-02-12T03:37:20;19.93;;;14.63;;
19329;SDS011;9799;48.214;16.388;2023-02-12T03:40:51;21.00;;;14.73;;
19329;SDS011;9799;48.214;16.388;2023-02-12T03:44:22;19.20;;;14.30;;
19329;SDS011;9799;48.214;16.388;2023-02-12T03:47:58;20.63;;;15.10;;
19329;SDS011;9799;48.214;16.388;2023-02-12T03:51:22;22.57;;;16.13;;
19329;SDS011;9799;48.214;16.388;2023-02-12T03:54:48;21.73;;;15.20;;
19329;SDS011;9799;48.214;16.388;2023-02-12T03:58:11;21.53;;;16.20;;
19329;SDS011;9799;48.214;16.388;2023-02-12T04:01:37;23.50;;;16.77;;
19329;SDS011;9799;48.214;16.388;2023-02-12T04:05:02;23.67;;;15.80;;
19329;SDS011;9799;48.214;16.388;2023-02-12T04:08:25;20.93;;;15.73;;
19329;SDS011;9799;48.214;16.388;2023-02-12T04:11:57;21.63;;;15.43;;
19329;SDS011;9799;48.214;16.388;2023-02-12T04:15:35;19.73;;;14.50;;
19329;SDS011;9799;48.214;16.388;2023-02-12T04:19:03;20.33;;;14.80;;
19329;SDS011;9799;48.214;16.388;2023-02-12T04:22:28;19.80;;;14.23;;
19329;SDS011;9799;48.214;16.388;2023-02-12T04:25:58;26.93;;;16.43;;
19329;SDS011;9799;48.214;16.388;2023-02-12T04:29:28;23.60;;;15.67;;
19329;SDS011;9799;48.214;16.388;2023-02-12T04:33:00;21.90;;;16.13;;
19329;SDS011;9799;48.214;16.388;2023-02-12T04:36:24;24.20;;;15.93;;
19329;SDS011;9799;48.214;16.388;2023-02-12T04:39:50;25.97;;;17.57;;
19329;SDS011;9799;48.214;16.388;2023-02-12T04:43:12;25.13;;;18.23;;
19329;SDS011;9799;48.214;16.388;2023-02-12T04:46:34;25.53;;;18.33;;
19329;SDS011;9799;48.214;16.388;2023-02-12T04:49:56;25.40;;;17.87;;
19329;SDS011;9799;48.214;16.388;2023-02-12T04:53:17;26.30;;;18.80;;
19329;SDS011;9799;48.214;16.388;2023-02-12T04:56:57;27.27;;;18.87;;
19329;SDS011;9799;48.214;16.388;2023-02-12T05:00:18;29.17;;;19.73;;
19329;SDS011;9799;48.214;16.388;2023-02-12T05:03:40;27.17;;;19.30;;
19329;SDS011;9799;48.214;16.388;2023-02-12T05:07:02;29.70;;;19.43;;
19329;SDS011;9799;48.214;16.388;2023-02-12T05:10:23;29.03;;;19.27;;
19329;SDS011;9799;48.214;16.388;2023-02-12T05:13:46;27.13;;;19.37;;
19329;SDS011;9799;48.214;16.388;2023-02-12T05:17:08;31.47;;;19.20;;
19329;SDS011;9799;48.214;16.388;2023-02-12T05:20:29;26.03;;;18.87;;
19329;SDS011;9799;48.214;16.388;2023-02-12T05:23:52;30.90;;;19.50;;
19329;SDS011;9799;48.214;16.388;2023-02-12T05:27:13;28.20;;;19.27;;
19329;SDS011;9799;48.214;16.388;2023-02-12T05:30:34;27.30;;;19.80;;
19329;SDS011;9799;48.214;16.388;2023-02-12T05:33:56;28.17;;;19.47;;
19329;SDS011;9799;48.214;16.388;2023-02-12T05:37:17;27.40;;;18.73;;
19329;SDS011;9799;48.214;16.388;2023-02-12T05:41:01;28.30;;;19.87;;
19329;SDS011;9799;48.214;16.388;2023-02-12T05:44:25;25.57;;;18.13;;
19329;SDS011;9799;48.214;16.388;2023-02-12T05:47:46;29.90;;;20.10;;
19329;SDS011;9799;48.214;16.388;2023-02-12T05:51:09;30.10;;;19.53;;
19329;SDS011;9799;48.214;16.388;2023-02-12T05:54:31;31.20;;;18.87;;
19329;SDS011;9799;48.214;16.388;2023-02-12T05:57:54;27.10;;;18.50;;
19329;SDS011;9799;48.214;16.388;2023-02-12T06:01:35;27.50;;;18.60;;
19329;SDS011;9799;48.214;16.388;2023-02-12T06:04:58;27.10;;;18.10;;
19329;SDS011;9799;48.214;16.388;2023-02-12T06:08:19;25.13;;;18.23;;
19329;SDS011;9799;48.214;16.388;2023-02-12T06:11:41;25.17;;;17.47;;
19329;SDS011;9799;48.214;16.388;2023-02-12T06:15:04;27.37;;;17.83;;
19329;SDS011;9799;48.214;16.388;2023-02-12T06:18:25;27.77;;;18.63;;
19329;SDS011;9799;48.214;16.388;2023-02-12T06:22:05;26.70;;;17.60;;
19329;SDS011;9799;48.214;16.388;2023-02-12T06:25:26;26.17;;;18.33;;
19329;SDS011;9799;48.214;16.388;2023-02-12T06:28:47;24.63;;;17.83;;
19329;SDS011;9799;48.214;16.388;2023-02-12T06:32:13;27.97;;;19.43;;
19329;SDS011;9799;48.214;16.388;2023-02-12T06:35:53;26.20;;;17.97;;
19329;SDS011;9799;48.214;16.388;2023-02-12T06:39:14;28.07;;;19.30;;
19329;SDS011;9799;48.214;16.388;2023-02-12T06:42:36;26.63;;;19.00;;
19329;SDS011;9799;48.214;16.388;2023-02-12T06:45:59;27.10;;;19.67;;
19329;SDS011;9799;48.214;16.388;2023-02-12T06:49:22;27.20;;;19.37;;
19329;SDS011;9799;48.214;16.388;2023-02-12T06:53:06;29.50;;;19.50;;
19329;SDS011;9799;48.214;16.388;2023-02-12T06:56:46;27.73;;;18.93;;
19329;SDS011;9799;48.214;16.388;2023-02-12T07:00:26;28.27;;;18.83;;
19329;SDS011;9799;48.214;16.388;2023-02-12T07:04:06;24.53;;;16.87;;
19329;SDS011;9799;48.214;16.388;2023-02-12T07:07:47;26.47;;;18.87;;
19329;SDS011;9799;48.214;16.388;2023-02-12T07:11:08;25.53;;;17.83;;
19329;SDS011;9799;48.214;16.388;2023-02-12T07:14:48;26.40;;;17.20;;
19329;SDS011;9799;48.214;16.388;2023-02-12T07:18:09;24.63;;;18.07;;
19329;SDS011;9799;48.214;16.388;2023-02-12T07:21:31;27.53;;;17.83;;
19329;SDS011;9799;48.214;16.388;2023-02-12T07:24:54;25.37;;;17.77;;
19329;SDS011;9799;48.214;16.388;2023-02-12T07:28:15;24.93;;;16.97;;
19329;SDS011;9799;48.214;16.388;2023-02-12T07:31:36;28.63;;;17.80;;
19329;SDS011;9799;48.214;16.388;2023-02-12T07:34:58;22.57;;;15.90;;
19329;SDS011;9799;48.214;16.388;2023-02-12T07:38:19;24.77;;;16.80;;
19329;SDS011;9799;48.214;16.388;2023-02-12T07:41:42;23.87;;;17.17;;
19329;SDS011;9799;48.214;16.388;2023-02-12T07:45:03;23.50;;;18.30;;
19329;SDS011;9799;48.214;16.388;2023-02-12T07:48:25;22.73;;;16.23;;
19329;SDS011;9799;48.214;16.388;2023-02-12T07:51:47;22.13;;;16.57;;
19329;SDS011;9799;48.214;16.388;2023-02-12T07:55:08;27.03;;;18.07;;
19329;SDS011;9799;48.214;16.388;2023-02-12T07:58:31;25.40;;;15.73;;
19329;SDS011;9799;48.214;16.388;2023-02-12T08:01:53;25.50;;;15.80;;
19329;SDS011;9799;48.214;16.388;2023-02-12T08:05:15;25.47;;;17.13;;
19329;SDS011;9799;48.214;16.388;2023-02-12T08:08:36;23.00;;;16.40;;
19329;SDS011;9799;48.214;16.388;2023-02-12T08:11:58;28.53;;;17.80;;
19329;SDS011;9799;48.214;16.388;2023-02-12T08:15:20;25.97;;;17.20;;
19329;SDS011;9799;48.214;16.388;2023-02-12T08:18:45;22.70;;;16.47;;
19329;SDS011;9799;48.214;16.388;2023-02-12T08:22:06;24.57;;;16.53;;
19329;SDS011;9799;48.214;16.388;2023-02-12T08:25:27;25.80;;;17.57;;
19329;SDS011;9799;48.214;16.388;2023-02-12T08:29:08;24.10;;;16.00;;
19329;SDS011;9799;48.214;16.388;2023-02-12T08:32:32;23.77;;;16.13;;
19329;SDS011;9799;48.214;16.388;2023-02-12T08:35:59;27.40;;;17.93;;
19329;SDS011;9799;48.214;16.388;2023-02-12T08:39:21;24.47;;;15.90;;
19329;SDS011;9799;48.214;16.388;2023-02-12T08:42:43;25.40;;;16.47;;
19329;SDS011;9799;48.214;16.388;2023-02-12T08:46:05;21.60;;;16.17;;
19329;SDS011;9799;48.214;16.388;2023-02-12T08:49:48;21.70;;;15.97;;
19329;SDS011;9799;48.214;16.388;2023-02-12T08:53:09;20.90;;;15.77;;
19329;SDS011;9799;48.214;16.388;2023-02-12T08:56:31;22.03;;;15.53;;
19329;SDS011;9799;48.214;16.388;2023-02-12T08:59:55;19.00;;;13.83;;
19329;SDS011;9799;48.214;16.388;2023-02-12T09:03:17;20.13;;;14.57;;
19329;SDS011;9799;48.214;16.388;2023-02-12T09:06:39;21.83;;;14.33;;
19329;SDS011;9799;48.214;16.388;2023-02-12T09:10:00;20.47;;;14.70;;
19329;SDS011;9799;48.214;16.388;2023-02-12T09:13:22;18.47;;;13.77;;
19329;SDS011;9799;48.214;16.388;2023-02-12T09:16:43;19.37;;;13.90;;
19329;SDS011;9799;48.214;16.388;2023-02-12T09:20:07;17.67;;;13.13;;
19329;SDS011;9799;48.214;16.388;2023-02-12T09:23:30;16.43;;;11.73;;
19329;SDS011;9799;48.214;16.388;2023-02-12T09:26:52;21.57;;;13.47;;
19329;SDS011;9799;48.214;16.388;2023-02-12T09:30:13;16.33;;;12.07;;
19329;SDS011;9799;48.214;16.388;2023-02-12T09:33:54;21.63;;;13.50;;
19329;SDS011;9799;48.214;16.388;2023-02-12T09:37:37;18.17;;;12.17;;
19329;SDS011;9799;48.214;16.388;2023-02-12T09:41:14;14.40;;;10.40;;
19329;SDS011;9799;48.214;16.388;2023-02-12T09:44:48;16.23;;;10.60;;
19329;SDS011;9799;48.214;16.388;2023-02-12T09:48:25;14.93;;;11.27;;
19329;SDS011;9799;48.214;16.388;2023-02-12T09:52:15;14.97;;;10.33;;
19329;SDS011;9799;48.214;16.388;2023-02-12T09:55:38;12.30;;;10.00;;
19329;SDS011;9799;48.214;16.388;2023-02-12T09:59:03;16.60;;;10.80;;
19329;SDS011;9799;48.214;16.388;2023-02-12T10:02:29;15.03;;;10.17;;
19329;SDS011;9799;48.214;16.388;2023-02-12T10:05:55;13.20;;;9.40;;
19329;SDS011;9799;48.214;16.388;2023-02-12T10:09:24;14.10;;;9.90;;
19329;SDS011;9799;48.214;16.388;2023-02-12T10:13:03;13.17;;;9.77;;
19329;SDS011;9799;48.214;16.388;2023-02-12T10:16:34;15.50;;;10.17;;
19329;SDS011;9799;48.214;16.388;2023-02-12T10:20:06;21.13;;;10.43;;
19329;SDS011;9799;48.214;16.388;2023-02-12T10:23:51;13.27;;;9.70;;
19329;SDS011;9799;48.214;16.388;2023-02-12T10:27:23;16.27;;;10.83;;
19329;SDS011;9799;48.214;16.388;2023-02-12T10:31:00;12.70;;;9.33;;
19329;SDS011;9799;48.214;16.388;2023-02-12T10:34:43;13.53;;;10.23;;
19329;SDS011;9799;48.214;16.388;2023-02-12T10:38:25;13.63;;;9.93;;
19329;SDS011;9799;48.214;16.388;2023-02-12T10:41:51;11.60;;;9.37;;
19329;SDS011;9799;48.214;16.388;2023-02-12T10:45:16;16.20;;;10.13;;
19329;SDS011;9799;48.214;16.388;2023-02-12T10:48:39;16.60;;;11.20;;
19329;SDS011;9799;48.214;16.388;2023-02-12T10:52:07;12.10;;;8.80;;
19329;SDS011;9799;48.214;16.388;2023-02-12T10:55:33;12.77;;;9.03;;
19329;SDS011;9799;48.214;16.388;2023-02-12T10:58:56;16.07;;;9.00;;
19329;SDS011;9799;48.214;16.388;2023-02-12T11:02:21;13.70;;;10.13;;
19329;SDS011;9799;48.214;16.388;2023-02-12T11:05:44;13.73;;;10.37;;
19329;SDS011;9799;48.214;16.388;2023-02-12T11:09:17;16.40;;;9.90;;
19329;SDS011;9799;48.214;16.388;2023-02-12T11:12:48;14.10;;;9.50;;
19329;SDS011;9799;48.214;16.388;2023-02-12T11:16:10;18.73;;;10.27;;
19329;SDS011;9799;48.214;16.388;2023-02-12T11:19:32;17.17;;;11.20;;
19329;SDS011;9799;48.214;16.388;2023-02-12T11:22:55;16.27;;;11.70;;
19329;SDS011;9799;48.214;16.388;2023-02-12T11:26:24;17.43;;;11.77;;
19329;SDS011;9799;48.214;16.388;2023-02-12T11:29:47;17.03;;;12.30;;
19329;SDS011;9799;48.214;16.388;2023-02-12T11:33:32;16.67;;;10.87;;
19329;SDS011;9799;48.214;16.388;2023-02-12T11:36:55;13.83;;;9.67;;
19329;SDS011;9799;48.214;16.388;2023-02-12T11:40:19;15.27;;;10.27;;
19329;SDS011;9799;48.214;16.388;2023-02-12T11:43:43;15.70;;;10.67;;
19329;SDS011;9799;48.214;16.388;2023-02-12T11:47:06;12.43;;;8.93;;
19329;SDS011;9799;48.214;16.388;2023-02-12T11:50:30;17.67;;;10.17;;
19329;SDS011;9799;48.214;16.388;2023-02-12T11:53:55;18.93;;;10.70;;
19329;SDS011;9799;48.214;16.388;2023-02-12T11:57:35;17.13;;;11.27;;
19329;SDS011;9799;48.214;16.388;2023-02-12T12:01:04;20.30;;;11.13;;
19329;SDS011;9799;48.214;16.388;2023-02-12T12:04:32;17.13;;;10.70;;
19329;SDS011;9799;48.214;16.388;2023-02-12T12:07:55;15.63;;;11.17;;
19329;SDS011;9799;48.214;16.388;2023-02-12T12:11:23;13.70;;;10.03;;
19329;SDS011;9799;48.214;16.388;2023-02-12T12:14:48;14.57;;;10.10;;
19329;SDS011;9799;48.214;16.388;2023-02-12T12:18:33;19.53;;;11.00;;
19329;SDS011;9799;48.214;16.388;2023-02-12T12:22:30;20.37;;;13.37;;
19329;SDS011;9799;48.214;16.388;2023-02-12T12:26:02;17.53;;;10.37;;
19329;SDS011;9799;48.214;16.388;2023-02-12T12:29:32;21.73;;;11.63;;
19329;SDS011;9799;48.214;16.388;2023-02-12T12:33:02;16.40;;;11.10;;
19329;SDS011;9799;48.214;16.388;2023-02-12T12:36:38;16.50;;;10.93;;
19329;SDS011;9799;48.214;16.388;2023-02-12T12:40:29;20.80;;;10.80;;
19329;SDS011;9799;48.214;16.388;2023-02-12T12:44:14;19.37;;;12.53;;
19329;SDS011;9799;48.214;16.388;2023-02-12T12:47:51;14.13;;;10.57;;
19329;SDS011;9799;48.214;16.388;2023-02-12T12:51:25;17.10;;;9.47;;
19329;SDS011;9799;48.214;16.388;2023-02-12T13:02:38;17.40;;;11.57;;
19329;SDS011;9799;48.214;16.388;2023-02-12T13:06:42;18.40;;;12.37;;
19329;SDS011;9799;48.214;16.388;2023-02-12T13:10:22;20.73;;;13.37;;
19329;SDS011;9799;48.214;16.388;2023-02-12T13:13:52;21.07;;;13.13;;
19329;SDS011;9799;48.214;16.388;2023-02-12T13:17:20;18.87;;;13.07;;
19329;SDS011;9799;48.214;16.388;2023-02-12T13:20:48;19.57;;;12.63;;
19329;SDS011;9799;48.214;16.388;2023-02-12T13:24:20;18.40;;;12.93;;
19329;SDS011;9799;48.214;16.388;2023-02-12T13:27:47;25.63;;;14.27;;
19329;SDS011;9799;48.214;16.388;2023-02-12T13:31:12;17.83;;;12.43;;
19329;SDS011;9799;48.214;16.388;2023-02-12T13:34:38;22.40;;;13.50;;
19329;SDS011;9799;48.214;16.388;2023-02-12T13:38:01;18.20;;;11.83;;
19329;SDS011;9799;48.214;16.388;2023-02-12T13:41:28;17.53;;;12.50;;
19329;SDS011;9799;48.214;16.388;2023-02-12T13:44:53;19.80;;;14.00;;
19329;SDS011;9799;48.214;16.388;2023-02-12T13:48:22;18.60;;;13.80;;
19329;SDS011;9799;48.214;16.388;2023-02-12T13:52:01;22.67;;;13.80;;
19329;SDS011;9799;48.214;16.388;2023-02-12T13:55:28;29.30;;;18.20;;
19329;SDS011;9799;48.214;16.388;2023-02-12T13:58:55;22.63;;;14.07;;
19329;SDS011;9799;48.214;16.388;2023-02-12T14:06:12;20.23;;;13.43;;
19329;SDS011;9799;48.214;16.388;2023-02-12T14:09:35;23.03;;;13.80;;
19329;SDS011;9799;48.214;16.388;2023-02-12T14:16:43;19.30;;;13.47;;
19329;SDS011;9799;48.214;16.388;2023-02-12T14:20:06;22.37;;;14.43;;
19329;SDS011;9799;48.214;16.388;2023-02-12T14:23:40;24.13;;;15.37;;
19329;SDS011;9799;48.214;16.388;2023-02-12T14:27:05;23.47;;;14.00;;
19329;SDS011;9799;48.214;16.388;2023-02-12T14:30:37;26.80;;;16.53;;
19329;SDS011;9799;48.214;16.388;2023-02-12T14:50:11;25.07;;;15.83;;
19329;SDS011;9799;48.214;16.388;2023-02-12T14:53:37;24.47;;;16.00;;
19329;SDS011;9799;48.214;16.388;2023-02-12T14:57:01;27.43;;;17.80;;
19329;SDS011;9799;48.214;16.388;2023-02-12T15:00:30;29.10;;;17.07;;
19329;SDS011;9799;48.214;16.388;2023-02-12T15:03:55;27.90;;;18.57;;
19329;SDS011;9799;48.214;16.388;2023-02-12T15:07:22;25.57;;;15.83;;
19329;SDS011;9799;48.214;16.388;2023-02-12T15:10:49;28.37;;;18.43;;
19329;SDS011;9799;48.214;16.388;2023-02-12T15:14:15;30.73;;;18.13;;
19329;SDS011;9799;48.214;16.388;2023-02-12T15:17:46;28.07;;;18.67;;
19329;SDS011;9799;48.214;16.388;2023-02-12T15:21:15;30.33;;;19.07;;
19329;SDS011;9799;48.214;16.388;2023-02-12T15:24:41;25.60;;;17.43;;
19329;SDS011;9799;48.214;16.388;2023-02-12T15:28:05;29.57;;;18.33;;
19329;SDS011;9799;48.214;16.388;2023-02-12T15:31:38;27.33;;;18.10;;
19329;SDS011;9799;48.214;16.388;2023-02-12T15:35:14;25.57;;;16.43;;
19329;SDS011;9799;48.214;16.388;2023-02-12T15:38:46;22.37;;;15.37;;
19329;SDS011;9799;48.214;16.388;2023-02-12T15:42:22;25.10;;;17.63;;
19329;SDS011;9799;48.214;16.388;2023-02-12T15:45:48;32.30;;;20.33;;
19329;SDS011;9799;48.214;16.388;2023-02-12T15:49:23;27.57;;;18.77;;
19329;SDS011;9799;48.214;16.388;2023-02-12T15:52:50;32.50;;;21.30;;
19329;SDS011;9799;48.214;16.388;2023-02-12T15:56:13;28.90;;;19.30;;
19329;SDS011;9799;48.214;16.388;2023-02-12T15:59:39;27.27;;;18.83;;
19329;SDS011;9799;48.214;16.388;2023-02-12T16:03:01;30.07;;;18.50;;
19329;SDS011;9799;48.214;16.388;2023-02-12T16:06:23;28.23;;;18.73;;
19329;SDS011;9799;48.214;16.388;2023-02-12T16:09:49;29.90;;;19.27;;
19329;SDS011;9799;48.214;16.388;2023-02-12T16:13:13;27.97;;;17.23;;
19329;SDS011;9799;48.214;16.388;2023-02-12T16:16:39;24.10;;;16.73;;
19329;SDS011;9799;48.214;16.388;2023-02-12T16:20:05;22.80;;;15.97;;
19329;SDS011;9799;48.214;16.388;2023-02-12T16:23:43;28.70;;;16.67;;
19329;SDS011;9799;48.214;16.388;2023-02-12T16:27:15;26.33;;;16.43;;
19329;SDS011;9799;48.214;16.388;2023-02-12T16:30:40;26.00;;;17.73;;
19329;SDS011;9799;48.214;16.388;2023-02-12T16:34:24;25.43;;;17.13;;
19329;SDS011;9799;48.214;16.388;2023-02-12T16:37:49;26.13;;;17.03;;
19329;SDS011;9799;48.214;16.388;2023-02-12T16:41:19;27.40;;;18.23;;
19329;SDS011;9799;48.214;16.388;2023-02-12T16:44:47;29.50;;;18.80;;
19329;SDS011;9799;48.214;16.388;2023-02-12T16:48:13;32.40;;;19.37;;
19329;SDS011;9799;48.214;16.388;2023-02-12T16:51:42;30.10;;;18.57;;
19329;SDS011;9799;48.214;16.388;2023-02-12T16:55:04;28.73;;;18.10;;
19329;SDS011;9799;48.214;16.388;2023-02-12T16:58:31;29.33;;;18.90;;
19329;SDS011;9799;48.214;16.388;2023-02-12T17:01:58;27.80;;;17.83;;
19329;SDS011;9799;48.214;16.388;2023-02-12T17:05:21;23.97;;;16.53;;
19329;SDS011;9799;48.214;16.388;2023-02-12T17:08:43;28.13;;;17.10;;
19329;SDS011;9799;48.214;16.388;2023-02-12T17:12:06;23.10;;;17.27;;
19329;SDS011;9799;48.214;16.388;2023-02-12T17:15:29;21.53;;;15.10;;
19329;SDS011;9799;48.214;16.388;2023-02-12T17:18:55;23.67;;;16.83;;
19329;SDS011;9799;48.214;16.388;2023-02-12T17:22:18;25.97;;;17.23;;
19329;SDS011;9799;48.214;16.388;2023-02-12T17:25:42;26.93;;;16.60;;
19329;SDS011;9799;48.214;16.388;2023-02-12T17:29:04;25.97;;;16.37;;
19329;SDS011;9799;48.214;16.388;2023-02-12T17:32:29;33.63;;;17.23;;
19329;SDS011;9799;48.214;16.388;2023-02-12T17:35:53;25.77;;;17.83;;
19329;SDS011;9799;48.214;16.388;2023-02-12T17:39:17;28.80;;;18.53;;
19329;SDS011;9799;48.214;16.388;2023-02-12T17:42:40;25.07;;;16.93;;
19329;SDS011;9799;48.214;16.388;2023-02-12T17:46:06;32.07;;;17.93;;
19329;SDS011;9799;48.214;16.388;2023-02-12T17:49:29;24.23;;;17.77;;
19329;SDS011;9799;48.214;16.388;2023-02-12T17:52:55;32.50;;;20.43;;
19329;SDS011;9799;48.214;16.388;2023-02-12T17:56:19;27.03;;;18.67;;
19329;SDS011;9799;48.214;16.388;2023-02-12T17:59:42;31.10;;;18.63;;
19329;SDS011;9799;48.214;16.388;2023-02-12T18:03:06;30.03;;;18.43;;
19329;SDS011;9799;48.214;16.388;2023-02-12T18:06:29;31.70;;;19.57;;
19329;SDS011;9799;48.214;16.388;2023-02-12T18:09:53;35.90;;;19.20;;
19329;SDS011;9799;48.214;16.388;2023-02-12T18:13:15;31.97;;;18.07;;
19329;SDS011;9799;48.214;16.388;2023-02-12T18:16:38;27.87;;;15.97;;
19329;SDS011;9799;48.214;16.388;2023-02-12T18:20:00;27.57;;;17.67;;
19329;SDS011;9799;48.214;16.388;2023-02-12T18:23:22;32.30;;;17.20;;
19329;SDS011;9799;48.214;16.388;2023-02-12T18:26:46;25.87;;;17.33;;
19329;SDS011;9799;48.214;16.388;2023-02-12T18:30:09;24.23;;;16.60;;
19329;SDS011;9799;48.214;16.388;2023-02-12T18:33:33;27.73;;;17.83;;
19329;SDS011;9799;48.214;16.388;2023-02-12T18:36:55;25.30;;;16.93;;
19329;SDS011;9799;48.214;16.388;2023-02-12T18:40:18;26.27;;;18.37;;
19329;SDS011;9799;48.214;16.388;2023-02-12T18:43:42;24.73;;;16.33;;
19329;SDS011;9799;48.214;16.388;2023-02-12T18:47:04;26.30;;;17.53;;
19329;SDS011;9799;48.214;16.388;2023-02-12T18:50:28;24.50;;;16.03;;
19329;SDS011;9799;48.214;16.388;2023-02-12T18:53:52;27.00;;;18.07;;
19329;SDS011;9799;48.214;16.388;2023-02-12T18:57:16;30.10;;;18.03;;
19329;SDS011;9799;48.214;16.388;2023-02-12T19:00:40;38.33;;;21.03;;
19329;SDS011;9799;48.214;16.388;2023-02-12T19:04:04;32.27;;;19.43;;
19329;SDS011;9799;48.214;16.388;2023-02-12T19:07:29;28.57;;;18.33;;
19329;SDS011;9799;48.214;16.388;2023-02-12T19:10:52;33.63;;;18.57;;
19329;SDS011;9799;48.214;16.388;2023-02-12T19:14:15;27.03;;;18.17;;
19329;SDS011;9799;48.214;16.388;2023-02-12T19:17:46;29.97;;;18.63;;
19329;SDS011;9799;48.214;16.388;2023-02-12T19:21:11;28.13;;;18.00;;
19329;SDS011;9799;48.214;16.388;2023-02-12T19:24:35;29.33;;;17.87;;
19329;SDS011;9799;48.214;16.388;2023-02-12T19:27:57;22.83;;;16.30;;
19329;SDS011;9799;48.214;16.388;2023-02-12T19:31:22;23.70;;;15.53;;
19329;SDS011;9799;48.214;16.388;2023-02-12T19:34:47;20.27;;;14.30;;
19329;SDS011;9799;48.214;16.388;2023-02-12T19:38:11;24.40;;;16.10;;
19329;SDS011;9799;48.214;16.388;2023-02-12T19:41:33;24.50;;;16.20;;
19329;SDS011;9799;48.214;16.388;2023-02-12T19:44:59;22.33;;;16.67;;
19329;SDS011;9799;48.214;16.388;2023-02-12T19:48:23;24.50;;;15.27;;
19329;SDS011;9799;48.214;16.388;2023-02-12T19:51:47;23.10;;;15.53;;
19329;SDS011;9799;48.214;16.388;2023-02-12T19:55:11;24.80;;;16.63;;
19329;SDS011;9799;48.214;16.388;2023-02-12T19:58:35;24.17;;;16.30;;
19329;SDS011;9799;48.214;16.388;2023-02-12T20:01:57;21.37;;;15.03;;
19329;SDS011;9799;48.214;16.388;2023-02-12T20:05:23;26.27;;;15.97;;
19329;SDS011;9799;48.214;16.388;2023-02-12T20:08:49;26.53;;;15.50;;
19329;SDS011;9799;48.214;16.388;2023-02-12T20:12:16;24.63;;;16.63;;
19329;SDS011;9799;48.214;16.388;2023-02-12T20:15:39;25.60;;;15.80;;
19329;SDS011;9799;48.214;16.388;2023-02-12T20:19:01;23.57;;;15.57;;
19329;SDS011;9799;48.214;16.388;2023-02-12T20:22:24;23.83;;;16.63;;
19329;SDS011;9799;48.214;16.388;2023-02-12T20:25:49;20.77;;;14.03;;
19329;SDS011;9799;48.214;16.388;2023-02-12T20:29:12;21.53;;;14.00;;
19329;SDS011;9799;48.214;16.388;2023-02-12T20:32:34;21.73;;;13.23;;
19329;SDS011;9799;48.214;16.388;2023-02-12T20:35:56;19.47;;;13.23;;
19329;SDS011;9799;48.214;16.388;2023-02-12T20:39:22;19.57;;;12.43;;
19329;SDS011;9799;48.214;16.388;2023-02-12T20:42:46;21.23;;;12.87;;